createdAt,value
2022-08-11T00:01:21.218Z,19.31
2022-08-11T00:03:53.818Z,19.31
2022-08-11T00:06:32.380Z,19.33
2022-08-11T00:09:00.817Z,19.33
2022-08-11T00:11:46.764Z,19.30
2022-08-11T00:14:16.928Z,19.29
2022-08-11T00:16:53.009Z,19.26
2022-08-11T00:20:12.648Z,19.26
2022-08-11T00:22:23.596Z,19.21
2022-08-11T00:24:53.300Z,19.11
2022-08-11T00:27:32.500Z,19.11
2022-08-11T00:29:59.151Z,19.10
2022-08-11T00:32:26.881Z,19.09
2022-08-11T00:35:54.808Z,19.08
2022-08-11T00:37:48.407Z,19.02
2022-08-11T00:40:23.137Z,18.99
2022-08-11T00:43:21.272Z,18.94
2022-08-11T00:46:12.643Z,18.92
2022-08-11T00:49:02.373Z,18.89
2022-08-11T00:51:56.646Z,18.90
2022-08-11T00:54:45.043Z,18.86
2022-08-11T00:57:35.982Z,18.83
2022-08-11T01:00:19.105Z,18.79
2022-08-11T01:03:04.407Z,18.77
2022-08-11T01:05:51.704Z,18.76
2022-08-11T01:08:37.024Z,18.73
2022-08-11T01:11:06.725Z,18.73
2022-08-11T01:14:07.435Z,18.76
2022-08-11T01:16:53.025Z,18.77
2022-08-11T01:20:46.086Z,18.75
2022-08-11T01:23:01.024Z,18.76
2022-08-11T01:26:11.080Z,18.75
2022-08-11T01:29:08.817Z,18.76
2022-08-11T01:31:56.889Z,18.74
2022-08-11T01:34:26.851Z,18.70
2022-08-11T01:37:06.651Z,18.68
2022-08-11T01:39:51.800Z,18.67
2022-08-11T01:43:28.541Z,18.62
2022-08-11T01:46:16.723Z,18.56
2022-08-11T01:48:57.120Z,18.52
2022-08-11T01:52:18.761Z,18.50
2022-08-11T01:55:29.782Z,18.46
2022-08-11T01:58:21.216Z,18.45
2022-08-11T02:01:52.999Z,18.41
2022-08-11T02:04:34.013Z,18.37
2022-08-11T02:07:19.232Z,18.37
2022-08-11T02:09:55.370Z,18.33
2022-08-11T02:12:39.704Z,18.32
2022-08-11T02:15:43.710Z,18.29
2022-08-11T02:18:53.175Z,18.29
2022-08-11T02:21:46.182Z,18.26
2022-08-11T02:24:20.898Z,18.22
2022-08-11T02:26:56.719Z,18.20
2022-08-11T02:29:31.531Z,18.20
2022-08-11T02:32:29.673Z,18.23
2022-08-11T02:35:22.110Z,18.27
2022-08-11T02:38:01.018Z,18.29
2022-08-11T02:40:38.393Z,18.31
2022-08-11T02:43:15.130Z,18.35
2022-08-11T02:45:54.900Z,18.40
2022-08-11T02:48:39.847Z,18.40
2022-08-11T02:51:14.807Z,18.41
2022-08-11T02:54:20.658Z,18.44
2022-08-11T02:56:54.740Z,18.44
2022-08-11T02:59:55.278Z,18.45
2022-08-11T03:02:52.467Z,18.45
2022-08-11T03:05:49.980Z,18.42
2022-08-11T03:08:31.337Z,18.41
2022-08-11T03:11:25.903Z,18.43
2022-08-11T03:14:23.014Z,18.41
2022-08-11T03:16:49.987Z,18.37
2022-08-11T03:20:00.082Z,18.35
2022-08-11T03:23:19.359Z,18.36
2022-08-11T03:25:57.559Z,18.37
2022-08-11T03:29:02.988Z,18.35
2022-08-11T03:31:35.742Z,18.35
2022-08-11T03:34:25.630Z,18.35
2022-08-11T03:37:39.011Z,18.37
2022-08-11T03:40:43.828Z,18.40
2022-08-11T03:43:32.267Z,18.40
2022-08-11T03:46:10.337Z,18.39
2022-08-11T03:48:54.718Z,18.39
2022-08-11T03:51:30.598Z,18.38
2022-08-11T03:54:29.547Z,18.37
2022-08-11T03:57:37.979Z,18.38
2022-08-11T04:00:25.910Z,18.39
2022-08-11T04:03:15.666Z,18.41
2022-08-11T04:06:21.173Z,18.41
2022-08-11T04:08:56.705Z,18.43
2022-08-11T04:11:41.573Z,18.44
2022-08-11T04:15:17.470Z,18.45
2022-08-11T04:17:51.074Z,18.45
2022-08-11T04:20:35.807Z,18.44
2022-08-11T04:24:35.745Z,18.43
2022-08-11T04:26:57.481Z,18.43
2022-08-11T04:30:00.869Z,18.42
2022-08-11T04:32:48.842Z,18.40
2022-08-11T04:35:48.599Z,18.41
2022-08-11T04:38:45.488Z,18.42
2022-08-11T04:41:15.142Z,18.44
2022-08-11T04:44:05.570Z,18.47
2022-08-11T04:46:51.499Z,18.50
2022-08-11T04:49:58.113Z,18.52
2022-08-11T04:53:32.156Z,18.56
2022-08-11T04:56:35.235Z,18.62
2022-08-11T04:59:48.670Z,18.65
2022-08-11T05:02:36.791Z,18.66
2022-08-11T05:05:33.772Z,18.66
2022-08-11T05:08:29.487Z,18.67
2022-08-11T05:10:55.986Z,18.71
2022-08-11T05:13:50.481Z,18.75
2022-08-11T05:16:46.178Z,18.78
2022-08-11T05:19:49.840Z,18.82
2022-08-11T05:22:38.313Z,18.86
2022-08-11T05:26:44.736Z,18.90
2022-08-11T05:28:48.723Z,18.94
2022-08-11T05:31:36.974Z,18.98
2022-08-11T05:34:30.235Z,18.99
2022-08-11T05:37:25.225Z,19.01
2022-08-11T05:40:14.513Z,18.99
2022-08-11T05:43:09.382Z,19.02
2022-08-11T05:46:03.693Z,19.07
2022-08-11T05:48:54.865Z,19.14
2022-08-11T05:51:52.497Z,19.20
2022-08-11T05:54:42.222Z,19.26
2022-08-11T05:57:09.771Z,19.30
2022-08-11T05:59:36.818Z,19.33
2022-08-11T06:02:07.539Z,19.37
2022-08-11T06:04:34.667Z,19.42
2022-08-11T06:07:06.289Z,19.47
2022-08-11T06:09:53.012Z,19.55
2022-08-11T06:12:37.468Z,19.59
2022-08-11T06:15:07.448Z,19.63
2022-08-11T06:17:43.123Z,19.65
2022-08-11T06:20:12.418Z,19.69
2022-08-11T06:22:47.551Z,19.72
2022-08-11T06:25:18.031Z,19.78
2022-08-11T06:27:45.978Z,19.81
2022-08-11T06:30:15.996Z,19.86
2022-08-11T06:32:45.694Z,19.92
2022-08-11T06:35:48.398Z,19.94
2022-08-11T06:38:31.969Z,19.93
2022-08-11T06:41:23.099Z,19.93
2022-08-11T06:43:55.255Z,19.97
2022-08-11T06:46:30.595Z,20.04
2022-08-11T06:49:00.833Z,20.06
2022-08-11T06:51:32.562Z,20.09
2022-08-11T06:54:04.662Z,20.13
2022-08-11T06:57:28.278Z,20.17
2022-08-11T07:00:06.763Z,20.23
2022-08-11T07:02:52.195Z,20.23
2022-08-11T07:05:28.962Z,20.25
2022-08-11T07:08:33.538Z,20.30
2022-08-11T07:12:07.128Z,20.36
2022-08-11T07:14:58.907Z,20.40
2022-08-11T07:17:31.770Z,20.45
2022-08-11T07:20:19.988Z,20.53
2022-08-11T07:23:14.585Z,20.67
2022-08-11T07:26:02.512Z,20.80
2022-08-11T07:28:49.671Z,20.93
2022-08-11T07:31:26.946Z,21.08
2022-08-11T07:34:15.859Z,21.21
2022-08-11T07:36:52.563Z,21.29
2022-08-11T07:39:22.430Z,21.39
2022-08-11T07:41:51.246Z,21.52
2022-08-11T07:44:18.809Z,21.61
2022-08-11T07:47:08.081Z,21.71
2022-08-11T07:49:55.866Z,21.81
2022-08-11T07:52:33.968Z,21.89
2022-08-11T07:55:14.611Z,22.07
2022-08-11T07:58:16.730Z,22.23
2022-08-11T08:01:16.079Z,22.29
2022-08-11T08:04:09.280Z,22.32
2022-08-11T08:06:55.971Z,22.31
2022-08-11T08:09:42.109Z,22.29
2022-08-11T08:12:28.356Z,22.28
2022-08-11T08:15:14.721Z,22.30
2022-08-11T08:18:10.070Z,22.34
2022-08-11T08:20:45.892Z,22.40
2022-08-11T08:23:13.506Z,22.42
2022-08-11T08:25:43.427Z,22.45
2022-08-11T08:28:15.221Z,22.49
2022-08-11T08:30:50.978Z,22.48
2022-08-11T08:33:27.531Z,22.51
2022-08-11T08:36:11.741Z,22.55
2022-08-11T08:38:50.003Z,22.55
2022-08-11T08:41:30.086Z,22.58
2022-08-11T08:44:27.817Z,22.63
2022-08-11T08:46:54.590Z,22.73
2022-08-11T08:49:31.747Z,22.79
2022-08-11T08:52:26.194Z,22.85
2022-08-11T08:54:54.471Z,22.94
2022-08-11T08:57:24.126Z,23.05
2022-08-11T08:59:52.189Z,23.15
2022-08-11T09:02:34.275Z,23.22
2022-08-11T09:05:04.064Z,23.30
2022-08-11T09:07:39.775Z,23.36
2022-08-11T09:10:08.718Z,23.41
2022-08-11T09:12:38.774Z,23.51
2022-08-11T09:15:10.165Z,23.57
2022-08-11T09:17:48.357Z,23.66
2022-08-11T09:20:25.770Z,23.75
2022-08-11T09:26:22.077Z,23.98
2022-08-11T09:28:58.994Z,24.08
2022-08-11T09:31:26.959Z,24.15
2022-08-11T09:33:55.436Z,24.19
2022-08-11T09:36:41.155Z,24.25
2022-08-11T09:39:26.674Z,24.35
2022-08-11T09:42:01.459Z,24.46
2022-08-11T09:44:50.654Z,24.53
2022-08-11T09:47:21.009Z,24.59
2022-08-11T09:49:49.126Z,24.64
2022-08-11T09:52:18.068Z,24.68
2022-08-11T09:54:48.015Z,24.75
2022-08-11T09:57:37.032Z,24.83
2022-08-11T10:00:09.494Z,24.89
2022-08-11T10:02:46.134Z,24.97
2022-08-11T10:05:36.028Z,25.05
2022-08-11T10:08:03.763Z,25.14
2022-08-11T10:10:34.668Z,25.19
2022-08-11T10:13:05.316Z,25.29
2022-08-11T10:16:15.426Z,25.41
2022-08-11T10:18:49.283Z,25.52
2022-08-11T10:21:28.290Z,25.64
2022-08-11T10:24:17.225Z,25.73
2022-08-11T10:26:53.635Z,25.76
2022-08-11T10:29:45.457Z,25.83
2022-08-11T10:32:52.263Z,25.90
2022-08-11T10:35:29.014Z,25.97
2022-08-11T10:38:08.276Z,26.06
2022-08-11T10:40:39.098Z,26.17
2022-08-11T10:43:10.361Z,26.23
2022-08-11T10:45:57.609Z,26.28
2022-08-11T10:48:26.921Z,26.37
2022-08-11T10:51:13.448Z,26.44
2022-08-11T10:54:02.499Z,26.46
2022-08-11T10:56:53.879Z,26.48
2022-08-11T10:59:22.237Z,26.56
2022-08-11T11:01:50.355Z,26.64
2022-08-11T11:04:24.300Z,26.73
2022-08-11T11:07:05.934Z,26.79
2022-08-11T11:09:38.574Z,26.83
2022-08-11T11:12:42.715Z,26.89
2022-08-11T11:15:29.461Z,26.93
2022-08-11T11:18:04.923Z,26.97
2022-08-11T11:20:46.707Z,27.04
2022-08-11T11:23:20.129Z,27.12
2022-08-11T11:26:27.544Z,27.21
2022-08-11T11:29:00.338Z,27.24
2022-08-11T11:31:53.798Z,27.32
2022-08-11T11:34:53.071Z,27.35
2022-08-11T11:37:23.499Z,27.40
2022-08-11T11:39:50.670Z,27.48
2022-08-11T11:42:18.770Z,27.54
2022-08-11T11:44:46.956Z,27.65
2022-08-11T11:47:17.191Z,27.73
2022-08-11T11:49:45.155Z,27.80
2022-08-11T11:52:19.105Z,27.88
2022-08-11T11:54:52.077Z,27.99
2022-08-11T11:57:40.731Z,28.10
2022-08-11T12:00:33.817Z,28.22
2022-08-11T12:03:03.730Z,28.29
2022-08-11T12:05:33.551Z,28.33
2022-08-11T12:08:18.130Z,28.35
2022-08-11T12:11:16.608Z,28.39
2022-08-11T12:13:46.115Z,28.46
2022-08-11T12:16:34.337Z,28.50
2022-08-11T12:19:06.151Z,28.55
2022-08-11T12:21:36.007Z,28.59
2022-08-11T12:24:21.866Z,28.56
2022-08-11T12:27:14.898Z,28.60
2022-08-11T12:29:41.139Z,28.58
2022-08-11T12:32:11.379Z,28.53
2022-08-11T12:34:38.094Z,28.54
2022-08-11T12:37:13.009Z,28.66
2022-08-11T12:40:15.644Z,28.76
2022-08-11T12:43:21.856Z,28.89
2022-08-11T12:45:54.280Z,29.02
2022-08-11T12:49:01.104Z,29.07
2022-08-11T12:52:11.927Z,29.03
2022-08-11T12:55:02.131Z,29.01
2022-08-11T12:57:54.728Z,29.08
2022-08-11T13:00:41.231Z,29.16
2022-08-11T13:03:29.936Z,29.29
2022-08-11T13:05:59.633Z,29.40
2022-08-11T13:08:29.641Z,29.43
2022-08-11T13:11:17.895Z,29.44
2022-08-11T13:13:53.663Z,29.47
2022-08-11T13:16:31.594Z,29.54
2022-08-11T13:19:01.235Z,29.56
2022-08-11T13:21:29.397Z,29.53
2022-08-11T13:24:01.353Z,29.51
2022-08-11T13:26:48.132Z,29.52
2022-08-11T13:29:22.306Z,29.57
2022-08-11T13:31:50.046Z,29.56
2022-08-11T13:34:18.650Z,29.62
2022-08-11T13:36:52.176Z,29.67
2022-08-11T13:39:20.442Z,29.71
2022-08-11T13:41:48.596Z,29.81
2022-08-11T13:44:23.224Z,29.93
2022-08-11T13:46:52.925Z,29.97
2022-08-11T13:49:21.788Z,29.97
2022-08-11T13:51:49.342Z,29.98
2022-08-11T13:54:23.851Z,29.94
2022-08-11T13:56:54.467Z,29.94
2022-08-11T13:59:24.055Z,29.99
2022-08-11T14:02:21.851Z,30.05
2022-08-11T14:04:53.326Z,30.20
2022-08-11T14:07:23.091Z,30.36
2022-08-11T14:09:57.589Z,30.40
2022-08-11T14:12:48.594Z,30.41
2022-08-11T14:15:25.351Z,30.45
2022-08-11T14:18:01.732Z,30.53
2022-08-11T14:20:53.869Z,30.60
2022-08-11T14:23:27.554Z,30.64
2022-08-11T14:26:14.769Z,30.64
2022-08-11T14:28:44.967Z,30.71
2022-08-11T14:31:14.411Z,30.86
2022-08-11T14:33:58.062Z,31.01
2022-08-11T14:36:31.168Z,30.99
2022-08-11T14:38:58.259Z,30.95
2022-08-11T14:42:11.714Z,30.92
2022-08-11T14:44:54.526Z,30.89
2022-08-11T14:47:23.681Z,30.93
2022-08-11T14:49:58.410Z,31.01
2022-08-11T14:52:55.146Z,31.14
2022-08-11T14:55:45.146Z,31.27
2022-08-11T14:58:18.966Z,31.22
2022-08-11T15:00:46.576Z,31.06
2022-08-11T15:03:15.324Z,30.89
2022-08-11T15:05:57.261Z,30.78
2022-08-11T15:08:47.455Z,30.72
2022-08-11T15:11:35.337Z,30.69
2022-08-11T15:14:05.427Z,30.67
2022-08-11T15:16:51.367Z,30.52
2022-08-11T15:19:21.264Z,30.42
2022-08-11T15:22:08.273Z,30.37
2022-08-11T15:24:36.748Z,30.21
2022-08-11T15:27:35.848Z,30.06
2022-08-11T15:30:33.487Z,29.97
2022-08-11T15:33:25.753Z,29.90
2022-08-11T15:36:13.306Z,29.84
2022-08-11T15:38:44.354Z,29.68
2022-08-11T15:41:34.351Z,29.56
2022-08-11T15:44:44.731Z,29.53
2022-08-11T15:47:14.529Z,29.44
2022-08-11T15:50:11.615Z,29.39
2022-08-11T15:52:39.263Z,29.46
2022-08-11T15:55:08.596Z,29.54
2022-08-11T15:57:55.457Z,29.67
2022-08-11T16:00:45.949Z,29.83
2022-08-11T16:04:06.721Z,29.98
2022-08-11T16:06:35.603Z,30.14
2022-08-11T16:09:07.444Z,30.26
2022-08-11T16:11:46.634Z,30.41
2022-08-11T16:14:34.286Z,30.53
2022-08-11T16:17:03.470Z,30.72
2022-08-11T16:19:35.717Z,30.91
2022-08-11T16:22:09.377Z,30.99
2022-08-11T16:27:04.604Z,30.98
2022-08-11T16:27:28.027Z,31.10
2022-08-11T16:29:56.271Z,31.21
2022-08-11T16:32:25.803Z,31.32
2022-08-11T16:35:17.689Z,31.39
2022-08-11T16:38:03.858Z,31.45
2022-08-11T16:40:31.237Z,31.49
2022-08-11T16:43:17.351Z,31.48
2022-08-11T16:46:03.540Z,31.48
2022-08-11T16:48:38.612Z,31.45
2022-08-11T16:51:07.416Z,31.37
2022-08-11T16:53:54.622Z,31.24
2022-08-11T16:56:25.206Z,31.15
2022-08-11T16:59:13.689Z,31.15
2022-08-11T17:01:45.163Z,31.22
2022-08-11T17:04:33.239Z,31.38
2022-08-11T17:07:40.423Z,31.46
2022-08-11T17:10:31.819Z,31.19
2022-08-11T17:13:21.246Z,30.84
2022-08-11T17:16:10.257Z,30.66
2022-08-11T17:18:48.951Z,30.36
2022-08-11T17:21:33.710Z,29.94
2022-08-11T17:24:08.476Z,29.53
2022-08-11T17:26:58.414Z,29.16
2022-08-11T17:29:24.956Z,28.88
2022-08-11T17:32:11.839Z,28.75
2022-08-11T17:35:00.942Z,28.55
2022-08-11T17:37:31.174Z,28.40
2022-08-11T17:39:59.849Z,28.23
2022-08-11T17:42:48.620Z,28.10
2022-08-11T17:45:36.102Z,27.96
2022-08-11T17:48:23.361Z,27.85
2022-08-11T17:50:52.470Z,27.70
2022-08-11T17:53:38.490Z,27.63
2022-08-11T17:56:25.943Z,27.63
2022-08-11T17:59:12.909Z,27.78
2022-08-11T18:01:41.071Z,28.01
2022-08-11T18:04:11.169Z,28.21
2022-08-11T18:06:42.518Z,28.44
2022-08-11T18:09:38.811Z,28.59
2022-08-11T18:12:28.285Z,28.73
2022-08-11T18:15:15.703Z,28.80
2022-08-11T18:18:02.079Z,28.83
2022-08-11T18:20:47.662Z,28.80
2022-08-11T18:23:46.924Z,28.75
2022-08-11T18:26:37.829Z,28.63
2022-08-11T18:29:26.080Z,28.49
2022-08-11T18:32:21.940Z,28.38
2022-08-11T18:35:14.412Z,28.21
2022-08-11T18:38:06.048Z,28.09
2022-08-11T18:40:54.290Z,27.92
2022-08-11T18:43:43.046Z,27.69
2022-08-11T18:46:31.818Z,27.44
2022-08-11T18:49:21.259Z,27.25
2022-08-11T18:52:11.356Z,27.00
2022-08-11T18:54:59.932Z,26.78
2022-08-11T18:57:52.096Z,26.51
2022-08-11T19:00:44.242Z,26.36
2022-08-11T19:03:33.054Z,26.24
2022-08-11T19:06:40.165Z,26.13
2022-08-11T19:09:30.777Z,26.02
2022-08-11T19:12:19.462Z,25.87
2022-08-11T19:15:07.093Z,25.73
2022-08-11T19:17:54.849Z,25.57
2022-08-11T19:20:43.652Z,25.41
2022-08-11T19:23:31.027Z,25.28
2022-08-11T19:26:17.454Z,25.18
2022-08-11T19:29:06.608Z,25.11
2022-08-11T19:31:52.640Z,25.03
2022-08-11T19:34:40.949Z,24.92
2022-08-11T19:37:27.349Z,24.81
2022-08-11T19:40:16.386Z,24.73
2022-08-11T19:43:02.378Z,24.67
2022-08-11T19:45:52.693Z,24.65
2022-08-11T19:48:40.932Z,24.58
2022-08-11T19:51:28.822Z,24.49
2022-08-11T19:54:15.767Z,24.39
2022-08-11T19:57:02.636Z,24.33
2022-08-11T19:59:49.046Z,24.30
2022-08-11T20:02:35.039Z,24.25
2022-08-11T20:05:20.244Z,24.18
2022-08-11T20:08:07.469Z,24.11
2022-08-11T20:10:55.870Z,24.09
2022-08-11T20:13:43.632Z,24.06
2022-08-11T20:16:32.445Z,23.99
2022-08-11T20:19:20.344Z,23.90
2022-08-11T20:22:14.529Z,23.80
2022-08-11T20:25:01.360Z,23.74
2022-08-11T20:27:55.122Z,23.68
2022-08-11T20:30:41.502Z,23.59
2022-08-11T20:33:28.202Z,23.52
2022-08-11T20:36:13.545Z,23.46
2022-08-11T20:38:59.681Z,23.36
2022-08-11T20:41:58.514Z,23.26
2022-08-11T20:44:47.317Z,23.20
2022-08-11T20:47:59.317Z,23.13
2022-08-11T20:50:45.913Z,23.05
2022-08-11T20:53:35.958Z,22.97
2022-08-11T20:56:28.361Z,22.90
2022-08-11T20:59:18.516Z,22.87
2022-08-11T21:02:09.852Z,22.84
2022-08-11T21:04:57.329Z,22.84
2022-08-11T21:07:55.519Z,22.82
2022-08-11T21:10:50.562Z,22.80
2022-08-11T21:13:39.393Z,22.80
2022-08-11T21:16:27.496Z,22.78
2022-08-11T21:19:19.180Z,22.75
2022-08-11T21:22:27.856Z,22.73
2022-08-11T21:25:16.408Z,22.68
2022-08-11T21:28:03.667Z,22.63
2022-08-11T21:30:51.088Z,22.58
2022-08-11T21:33:41.714Z,22.54
2022-08-11T21:36:27.834Z,22.46
2022-08-11T21:39:13.289Z,22.38
2022-08-11T21:41:58.801Z,22.32
2022-08-11T21:44:45.484Z,22.26
2022-08-11T21:47:43.695Z,22.18
2022-08-11T21:50:29.466Z,22.11
2022-08-11T21:53:16.841Z,22.04
2022-08-11T21:56:02.522Z,22.00
2022-08-11T21:58:49.055Z,21.97
2022-08-11T22:01:35.417Z,21.92
2022-08-11T22:04:22.152Z,21.92
2022-08-11T22:07:09.387Z,21.93
2022-08-11T22:09:55.797Z,21.90
2022-08-11T22:12:44.971Z,21.88
2022-08-11T22:15:31.225Z,21.88
2022-08-11T22:18:16.919Z,21.84
2022-08-11T22:21:03.822Z,21.81
2022-08-11T22:23:52.133Z,21.77
2022-08-11T22:26:41.210Z,21.74
2022-08-11T22:29:50.807Z,21.72
2022-08-11T22:32:35.827Z,21.70
2022-08-11T22:35:21.709Z,21.60
2022-08-11T22:38:08.132Z,21.48
2022-08-11T22:40:55.262Z,21.36
2022-08-11T22:43:40.398Z,21.18
2022-08-11T22:46:25.777Z,20.96
2022-08-11T22:49:11.687Z,20.74
2022-08-11T22:51:58.387Z,20.57
2022-08-11T22:54:44.983Z,20.49
2022-08-11T22:57:30.638Z,20.41
2022-08-11T23:00:16.688Z,20.38
2022-08-11T23:03:02.558Z,20.42
2022-08-11T23:05:48.420Z,20.47
2022-08-11T23:08:34.630Z,20.51
2022-08-11T23:11:20.570Z,20.55
2022-08-11T23:14:06.632Z,20.63
2022-08-11T23:16:52.430Z,20.70
2022-08-11T23:20:03.853Z,20.76
2022-08-11T23:22:50.304Z,20.85
2022-08-11T23:25:36.923Z,20.87
2022-08-11T23:28:24.028Z,20.78
2022-08-11T23:31:12.106Z,20.74
2022-08-11T23:34:00.836Z,20.67
2022-08-11T23:36:47.463Z,20.64
2022-08-11T23:39:36.895Z,20.60
2022-08-11T23:42:22.946Z,20.55
2022-08-11T23:45:09.668Z,20.55
2022-08-11T23:47:57.751Z,20.57
2022-08-11T23:50:43.813Z,20.55
2022-08-11T23:53:31.066Z,20.45
2022-08-11T23:56:16.889Z,20.35
2022-08-11T23:59:04.207Z,20.30
